Time;durP1;ratioP1;P1;durP2;ratioP2;P2;SDS_P1;SDS_P2;PMS_P1;PMS_P2;Temp;Humidity;BMP_temperature;BMP_pressure;BME280_temperature;BME280_humidity;BME280_pressure;Samples;Min_cycle;Max_cycle;Signal;HPM_P1;HPM_P2
2023/06/17 00:00:28;;;;;;;7.20;5.40;;;;;;;24.03;51.23;100200.59;5068762;28;20516;-71
2023/06/17 00:02:53;;;;;;;9.27;5.23;;;;;;;24.02;51.16;100201.00;5078959;28;20909;-70
2023/06/17 00:05:20;;;;;;;8.20;5.20;;;;;;;24.01;51.28;100200.19;5055012;28;20489;-70
2023/06/17 00:07:45;;;;;;;10.40;5.60;;;;;;;24.03;51.36;100205.56;5088615;28;20258;-70
2023/06/17 00:10:10;;;;;;;8.80;5.67;;;;;;;24.01;51.07;100203.09;5088174;28;20423;-70
2023/06/17 00:12:36;;;;;;;9.90;5.20;;;;;;;24.00;51.23;100207.22;5048229;28;20230;-69
2023/06/17 00:15:04;;;;;;;13.73;5.70;;;;;;;24.01;51.27;100203.09;5072493;28;20228;-70
2023/06/17 00:17:32;;;;;;;13.43;6.20;;;;;;;24.00;51.10;100189.91;5088868;28;20456;-71
2023/06/17 00:19:58;;;;;;;8.53;5.73;;;;;;;24.00;51.17;100197.72;5070522;28;20532;-70
2023/06/17 00:22:29;;;;;;;11.50;5.90;;;;;;;24.00;50.72;100200.63;5051712;28;20442;-70
2023/06/17 00:24:56;;;;;;;12.57;6.00;;;;;;;23.98;51.02;100192.38;5055848;28;20493;-70
2023/06/17 00:27:21;;;;;;;10.53;6.70;;;;;;;23.98;50.65;100201.03;5052495;28;20466;-70
2023/06/17 00:29:46;;;;;;;9.90;5.70;;;;;;;23.98;51.24;100191.56;5052377;28;20405;-70
2023/06/17 00:32:12;;;;;;;13.23;6.37;;;;;;;23.97;50.94;100196.50;5052009;28;20175;-70
2023/06/17 00:34:37;;;;;;;10.50;6.30;;;;;;;23.97;51.02;100196.50;5071177;28;20194;-69
2023/06/17 00:37:03;;;;;;;10.27;6.70;;;;;;;23.97;51.01;100199.38;5048429;28;20187;-70
2023/06/17 00:39:28;;;;;;;10.37;6.17;;;;;;;23.98;50.96;100197.34;5069627;28;20203;-69
2023/06/17 00:41:54;;;;;;;10.00;6.20;;;;;;;23.98;51.07;100200.22;5048483;28;20183;-69
2023/06/17 00:44:19;;;;;;;11.23;6.13;;;;;;;23.97;51.31;100196.50;5043340;28;20186;-71
2023/06/17 00:46:47;;;;;;;12.13;6.40;;;;;;;23.97;51.19;100192.78;5048822;28;20179;-70
2023/06/17 00:49:12;;;;;;;12.07;6.07;;;;;;;23.96;51.03;100194.88;5065898;28;20186;-69
2023/06/17 00:51:38;;;;;;;11.27;6.47;;;;;;;23.97;51.06;100192.78;5066809;28;20429;-70
2023/06/17 00:54:05;;;;;;;14.77;6.77;;;;;;;23.95;50.68;100184.59;5077285;28;20281;-71
2023/06/17 00:56:31;;;;;;;11.97;6.30;;;;;;;23.95;50.94;100189.53;5046183;28;20483;-70
2023/06/17 00:58:57;;;;;;;10.30;5.60;;;;;;;23.95;51.23;100180.88;5069377;28;21054;-70
2023/06/17 01:01:24;;;;;;;8.23;6.10;;;;;;;23.95;51.05;100184.59;5053396;28;20536;-70
2023/06/17 01:03:51;;;;;;;9.17;5.60;;;;;;;23.95;51.08;100178.81;5034483;28;20206;-70
2023/06/17 01:06:42;;;;;;;8.53;5.87;;;;;;;23.95;50.87;100184.59;5048580;28;20414;-70
2023/06/17 01:09:11;;;;;;;9.60;6.50;;;;;;;23.94;51.12;100185.81;5048670;28;20742;-70
2023/06/17 01:11:39;;;;;;;10.90;5.90;;;;;;;23.95;50.87;100181.69;5052251;28;20448;-70
2023/06/17 01:14:05;;;;;;;7.60;5.10;;;;;;;23.94;51.02;100185.81;5088097;28;21026;-70
2023/06/17 01:16:32;;;;;;;9.20;6.03;;;;;;;23.94;50.95;100185.81;5052511;28;20428;-70
2023/06/17 01:18:57;;;;;;;8.27;5.97;;;;;;;23.93;51.14;100184.16;5053293;28;20194;-70
2023/06/17 01:21:23;;;;;;;8.53;5.90;;;;;;;23.93;50.78;100184.16;5035733;28;21074;-70
2023/06/17 01:23:52;;;;;;;8.90;5.93;;;;;;;23.93;50.69;100187.03;5049884;28;20175;-70
2023/06/17 01:26:19;;;;;;;10.07;5.13;;;;;;;23.93;51.20;100187.03;5068539;28;20186;-70
2023/06/17 01:28:45;;;;;;;7.57;5.17;;;;;;;23.92;51.02;100182.53;5068106;28;20481;-70
2023/06/17 01:31:12;;;;;;;9.13;5.60;;;;;;;23.91;50.63;100182.94;5067773;28;20436;-71
2023/06/17 01:33:38;;;;;;;9.23;5.73;;;;;;;23.91;50.97;100175.13;5051044;28;20406;-71
2023/06/17 01:36:39;;;;;;;8.90;5.57;;;;;;;23.92;51.06;100182.53;5049492;28;20499;-70
2023/06/17 01:39:05;;;;;;;8.20;5.57;;;;;;;23.92;50.88;100175.94;5012582;28;20457;-70
2023/06/17 01:41:33;;;;;;;8.03;5.63;;;;;;;23.91;51.07;100188.72;5050253;28;20438;-70
2023/06/17 01:43:59;;;;;;;9.43;6.50;;;;;;;23.91;50.80;100182.94;5030554;28;20195;-70
2023/06/17 01:46:24;;;;;;;8.60;5.70;;;;;;;23.90;50.68;100185.03;5049926;28;20430;-71
2023/06/17 01:48:52;;;;;;;10.47;5.90;;;;;;;23.89;50.93;100183.34;5069483;28;20175;-70
2023/06/17 01:51:19;;;;;;;10.43;5.57;;;;;;;23.89;50.70;100183.34;5087823;28;20597;-69
2023/06/17 01:53:45;;;;;;;8.03;5.53;;;;;;;23.89;50.78;100183.34;5063694;28;20449;-70
2023/06/17 01:56:10;;;;;;;8.97;5.53;;;;;;;23.89;50.90;100182.56;5031574;28;20418;-70
2023/06/17 01:58:36;;;;;;;7.70;5.23;;;;;;;23.87;50.63;100180.06;5031258;28;20667;-70
2023/06/17 02:01:02;;;;;;;9.17;5.93;;;;;;;23.87;50.71;100182.09;5041665;28;20186;-70
2023/06/17 02:03:27;;;;;;;8.50;4.97;;;;;;;23.86;50.63;100178.41;5047821;28;20180;-69
2023/06/17 02:05:52;;;;;;;8.80;6.70;;;;;;;23.88;50.77;100192.41;5050005;28;20640;-70
2023/06/17 02:08:18;;;;;;;6.70;5.37;;;;;;;23.87;50.99;100187.88;5038180;28;20178;-70
2023/06/17 02:10:43;;;;;;;7.70;5.73;;;;;;;23.87;50.60;100190.75;5073688;28;20178;-70
2023/06/17 02:13:09;;;;;;;6.83;5.23;;;;;;;23.86;50.60;100186.22;5071045;28;20276;-71
2023/06/17 02:15:34;;;;;;;7.77;5.40;;;;;;;23.86;50.80;100181.31;5070839;28;20237;-70
2023/06/17 02:18:00;;;;;;;8.20;5.37;;;;;;;23.86;50.66;100184.19;5071260;28;20650;-69
2023/06/17 02:20:26;;;;;;;8.90;6.10;;;;;;;23.86;50.58;100178.41;5068266;28;20592;-69
2023/06/17 02:22:51;;;;;;;6.77;5.13;;;;;;;23.85;50.94;100173.91;5053771;28;20209;-69
2023/06/17 02:25:17;;;;;;;10.20;5.57;;;;;;;23.85;50.55;100176.78;5050856;28;20449;-69
2023/06/17 02:27:42;;;;;;;9.87;5.77;;;;;;;23.85;50.29;100178.84;5033853;28;20183;-71
2023/06/17 02:30:11;;;;;;;11.50;5.60;;;;;;;23.83;50.69;100173.47;5050136;28;20191;-69
2023/06/17 02:32:37;;;;;;;8.73;5.67;;;;;;;23.82;50.10;100180.50;5026825;28;20267;-75
2023/06/17 02:35:02;;;;;;;7.73;4.87;;;;;;;23.83;50.33;100170.59;5049548;28;21176;-75
2023/06/17 02:37:28;;;;;;;6.33;5.10;;;;;;;23.83;50.74;100172.69;5050115;28;20586;-75
2023/06/17 02:39:54;;;;;;;8.97;5.63;;;;;;;23.82;50.49;100166.06;5049908;28;20179;-75
2023/06/17 02:42:20;;;;;;;9.87;5.70;;;;;;;23.81;50.65;100170.22;5061946;28;20195;-74
2023/06/17 02:44:45;;;;;;;7.20;5.10;;;;;;;23.81;50.35;100167.31;5054398;28;20495;-75
2023/06/17 02:47:11;;;;;;;7.03;5.10;;;;;;;23.81;50.47;100170.22;5035664;28;20182;-75
2023/06/17 02:49:36;;;;;;;7.90;5.70;;;;;;;23.81;50.59;100170.22;5087319;28;20167;-75
2023/06/17 02:52:02;;;;;;;9.23;5.30;;;;;;;23.82;50.61;100166.06;5036490;28;20179;-75
2023/06/17 02:54:27;;;;;;;9.67;6.10;;;;;;;23.81;50.78;100169.38;5053984;28;20635;-75
2023/06/17 02:56:53;;;;;;;6.93;5.50;;;;;;;23.81;50.46;100169.38;5054118;28;20171;-75
2023/06/17 02:59:18;;;;;;;7.90;5.83;;;;;;;23.81;50.35;100169.38;5053393;28;20199;-74
2023/06/17 03:01:44;;;;;;;9.93;5.57;;;;;;;23.80;50.60;100174.34;5070313;28;20194;-74
2023/06/17 03:04:12;;;;;;;7.90;5.23;;;;;;;23.80;50.35;100176.38;5050204;28;20171;-75
2023/06/17 03:06:40;;;;;;;6.20;4.67;;;;;;;23.79;50.45;100178.44;5053175;28;20469;-75
2023/06/17 03:09:09;;;;;;;7.87;5.37;;;;;;;23.79;50.20;100172.66;5037865;28;20475;-75
2023/06/17 03:11:35;;;;;;;7.20;5.27;;;;;;;23.78;50.37;100171.03;5053779;28;20504;-75
2023/06/17 03:14:01;;;;;;;10.77;6.57;;;;;;;23.78;50.31;100171.03;5053011;28;20600;-75
2023/06/17 03:16:28;;;;;;;8.73;6.13;;;;;;;23.78;50.45;100173.91;5015719;28;20454;-75
2023/06/17 03:18:53;;;;;;;9.73;6.17;;;;;;;23.78;50.46;100181.75;5050176;28;20668;-74
2023/06/17 03:21:18;;;;;;;10.00;6.03;;;;;;;23.78;50.25;100176.81;5043616;28;20425;-75
2023/06/17 03:23:45;;;;;;;9.90;5.73;;;;;;;23.77;50.28;100180.94;5032695;28;20333;-75
2023/06/17 03:26:10;;;;;;;9.30;6.23;;;;;;;23.77;50.46;100180.09;5032895;28;20188;-75
2023/06/17 03:28:36;;;;;;;15.03;6.33;;;;;;;23.76;50.14;100190.00;5032412;28;20465;-75
2023/06/17 03:31:02;;;;;;;11.20;6.80;;;;;;;23.76;50.27;100195.75;5047853;28;20176;-74
2023/06/17 03:33:27;;;;;;;11.23;6.60;;;;;;;23.76;50.15;100190.00;5045801;28;20182;-75
2023/06/17 03:35:53;;;;;;;13.73;7.53;;;;;;;23.75;50.56;100177.66;5029237;28;20457;-74
2023/06/17 03:38:19;;;;;;;13.27;8.07;;;;;;;23.75;50.47;100186.31;5030473;28;20200;-75
2023/06/17 03:40:45;;;;;;;12.83;7.57;;;;;;;23.75;50.71;100179.72;5032391;28;20249;-73
2023/06/17 03:43:11;;;;;;;10.13;7.40;;;;;;;23.74;50.35;100187.53;5035963;28;20431;-75
2023/06/17 03:45:36;;;;;;;11.80;6.97;;;;;;;23.74;50.22;100183.84;5023775;28;20183;-76
2023/06/17 03:48:02;;;;;;;13.90;7.60;;;;;;;23.74;50.20;100181.75;5046753;28;20164;-75
2023/06/17 03:50:28;;;;;;;13.30;6.97;;;;;;;23.74;50.40;100186.72;5032148;28;20252;-74
2023/06/17 03:52:53;;;;;;;12.17;6.77;;;;;;;23.73;50.08;100188.78;5015342;28;20422;-75
2023/06/17 03:55:19;;;;;;;10.60;6.23;;;;;;;23.72;49.96;100190.00;5031096;28;20172;-75
2023/06/17 03:57:44;;;;;;;11.60;7.47;;;;;;;23.72;50.25;100184.25;5032561;28;20314;-75
2023/06/17 04:00:11;;;;;;;13.33;7.33;;;;;;;23.73;50.19;100196.63;5031672;28;20643;-74
2023/06/17 04:02:36;;;;;;;12.07;7.20;;;;;;;23.71;50.20;100185.50;5018294;28;20183;-75
2023/06/17 04:05:02;;;;;;;15.10;7.13;;;;;;;23.72;50.07;100198.66;5032567;28;20501;-75
2023/06/17 04:07:28;;;;;;;9.40;6.23;;;;;;;23.71;49.99;100196.19;5032825;28;20175;-75
2023/06/17 04:09:53;;;;;;;12.03;6.90;;;;;;;23.71;50.00;100194.16;5015282;28;20219;-74
2023/06/17 04:12:19;;;;;;;11.20;6.73;;;;;;;23.70;50.02;100198.28;5027504;28;20477;-75
2023/06/17 04:14:44;;;;;;;11.10;7.00;;;;;;;23.70;50.33;100198.28;5073580;28;20232;-74
2023/06/17 04:17:10;;;;;;;10.73;6.73;;;;;;;23.69;49.96;100205.25;5055106;28;20155;-74
2023/06/17 04:19:37;;;;;;;10.20;6.70;;;;;;;23.69;49.94;100196.59;5058167;28;20205;-75
2023/06/17 04:22:06;;;;;;;10.60;6.50;;;;;;;23.68;49.94;100200.72;5055678;28;20237;-75
2023/06/17 04:24:31;;;;;;;9.87;6.50;;;;;;;23.68;50.20;100200.72;5062538;28;20483;-75
2023/06/17 04:26:57;;;;;;;13.53;6.73;;;;;;;23.69;50.16;100201.56;5059008;28;21208;-75
2023/06/17 04:29:23;;;;;;;10.90;7.03;;;;;;;23.69;50.09;100205.25;5033373;28;20724;-74
2023/06/17 04:31:49;;;;;;;11.17;6.50;;;;;;;23.69;50.30;100205.25;5055183;28;20586;-75
2023/06/17 04:34:23;;;;;;;8.50;5.70;;;;;;;23.68;50.29;100215.16;5055509;28;20641;-75
2023/06/17 04:36:49;;;;;;;10.40;6.53;;;;;;;23.69;50.37;100213.09;5058078;28;20767;-75
2023/06/17 04:39:16;;;;;;;12.17;5.90;;;;;;;23.69;50.20;100207.34;5057268;28;20464;-75
2023/06/17 04:41:45;;;;;;;11.17;6.63;;;;;;;23.69;49.79;100205.25;5064991;28;20194;-75
2023/06/17 04:44:12;;;;;;;8.40;5.30;;;;;;;23.71;49.87;100204.84;5066077;28;20828;-75
2023/06/17 04:46:38;;;;;;;17.17;6.67;;;;;;;23.71;50.04;100205.69;5070898;28;20408;-74
2023/06/17 04:49:03;;;;;;;11.07;6.70;;;;;;;23.72;49.89;100209.38;5037473;28;20481;-75
2023/06/17 04:51:29;;;;;;;10.20;6.17;;;;;;;23.74;49.90;100206.91;5071173;28;20178;-74
2023/06/17 04:53:54;;;;;;;9.20;6.23;;;;;;;23.74;50.25;100206.91;5071616;28;20510;-75
2023/06/17 04:56:20;;;;;;;11.63;5.80;;;;;;;23.74;50.47;100204.81;5071270;28;20166;-75
2023/06/17 04:58:45;;;;;;;9.80;6.10;;;;;;;23.73;50.13;100197.41;5038529;28;20561;-75
2023/06/17 05:01:12;;;;;;;8.83;5.83;;;;;;;23.74;50.31;100207.69;5041196;28;20197;-75
2023/06/17 05:03:37;;;;;;;9.83;6.93;;;;;;;23.74;50.33;100204.81;5067577;28;20525;-75
2023/06/17 05:06:02;;;;;;;8.70;6.00;;;;;;;23.75;50.73;100206.50;5045270;28;20494;-75
2023/06/17 05:08:28;;;;;;;10.57;6.00;;;;;;;23.76;50.60;100211.00;5057091;28;20202;-75
2023/06/17 05:10:53;;;;;;;10.63;6.00;;;;;;;23.76;50.57;100213.91;5057385;28;20187;-75
2023/06/17 05:13:19;;;;;;;10.20;5.40;;;;;;;23.78;50.71;100216.38;5051471;28;20230;-75
2023/06/17 05:15:44;;;;;;;8.07;5.30;;;;;;;23.79;50.58;100210.16;5068341;28;20268;-75
2023/06/17 05:18:10;;;;;;;8.50;6.10;;;;;;;23.78;51.16;100211.41;5050307;28;20606;-75
2023/06/17 05:20:35;;;;;;;17.33;6.27;;;;;;;23.79;51.19;100207.28;5051760;28;20547;-75
2023/06/17 05:23:00;;;;;;;9.20;6.23;;;;;;;23.78;51.33;100214.28;5050718;28;20167;-75
2023/06/17 05:25:26;;;;;;;11.40;6.10;;;;;;;23.76;51.63;100215.94;5034729;28;20555;-75
2023/06/17 05:27:51;;;;;;;9.90;5.90;;;;;;;23.75;51.08;100220.91;5034877;28;20257;-75
2023/06/17 05:30:17;;;;;;;10.77;6.30;;;;;;;23.78;51.32;100217.16;5048300;28;20167;-75
2023/06/17 05:32:42;;;;;;;10.73;5.67;;;;;;;23.78;51.37;100217.16;5051810;28;20938;-75
2023/06/17 05:35:08;;;;;;;11.00;5.67;;;;;;;23.79;50.33;100213.03;5051714;28;20575;-75
2023/06/17 05:37:33;;;;;;;10.40;6.43;;;;;;;23.78;50.35;100219.25;5047510;28;20644;-75
2023/06/17 05:39:59;;;;;;;9.10;5.53;;;;;;;23.78;50.55;100210.59;5033788;28;20909;-75
2023/06/17 05:42:24;;;;;;;9.10;6.50;;;;;;;23.77;50.82;100221.28;5060818;28;20730;-75
2023/06/17 05:44:50;;;;;;;13.60;6.00;;;;;;;23.76;51.18;100218.81;5035853;28;20209;-75
2023/06/17 05:47:15;;;;;;;8.67;5.80;;;;;;;23.76;50.54;100222.53;5035460;28;20226;-73
2023/06/17 05:49:41;;;;;;;9.57;5.43;;;;;;;23.78;50.44;100228.69;5054992;28;20168;-74
2023/06/17 05:52:06;;;;;;;10.40;6.17;;;;;;;23.78;50.57;100228.69;5055231;28;20171;-74
2023/06/17 05:54:31;;;;;;;8.33;6.00;;;;;;;23.78;50.52;100231.56;5072115;28;20178;-74
2023/06/17 05:56:57;;;;;;;8.17;5.20;;;;;;;23.78;50.67;100225.81;5038619;28;20183;-74
2023/06/17 05:59:23;;;;;;;8.30;6.47;;;;;;;23.77;50.82;100232.81;5050685;28;20207;-75
2023/06/17 06:01:49;;;;;;;8.60;5.80;;;;;;;23.79;50.06;100230.34;5068485;28;20237;-74
2023/06/17 06:04:14;;;;;;;11.40;6.10;;;;;;;23.80;49.97;100232.00;5036072;28;20921;-75
2023/06/17 06:06:40;;;;;;;8.23;5.03;;;;;;;23.83;50.24;100236.09;5054848;28;20717;-74
2023/06/17 06:09:05;;;;;;;10.67;6.30;;;;;;;23.85;50.14;100234.44;5071765;28;20221;-74
2023/06/17 06:11:31;;;;;;;7.67;6.03;;;;;;;23.86;50.01;100241.84;5032883;28;20191;-75
2023/06/17 06:13:56;;;;;;;9.30;6.07;;;;;;;23.87;50.35;100242.66;5082427;28;20230;-74
2023/06/17 06:16:22;;;;;;;11.20;6.00;;;;;;;23.87;50.36;100248.44;5070890;28;20187;-75
2023/06/17 06:18:47;;;;;;;10.30;5.90;;;;;;;23.84;50.37;100246.41;5054102;28;20198;-75
2023/06/17 06:21:12;;;;;;;9.17;5.47;;;;;;;23.81;50.16;100250.94;5029098;28;20216;-75
2023/06/17 06:23:38;;;;;;;7.97;6.00;;;;;;;23.80;50.31;100248.47;5024177;28;20435;-75
2023/06/17 06:26:03;;;;;;;9.40;5.80;;;;;;;23.78;49.33;100254.66;5037785;28;20244;-75
2023/06/17 06:28:29;;;;;;;8.33;5.50;;;;;;;23.77;49.36;100255.91;5054756;28;20167;-75
2023/06/17 06:30:54;;;;;;;9.17;7.07;;;;;;;23.75;49.22;100249.72;5051509;28;20602;-75
2023/06/17 06:33:21;;;;;;;8.93;6.10;;;;;;;23.75;49.39;100260.44;5062067;28;20178;-75
2023/06/17 06:35:47;;;;;;;10.43;6.03;;;;;;;23.74;49.51;100261.69;5052125;28;20194;-75
2023/06/17 06:38:12;;;;;;;9.40;6.00;;;;;;;23.73;49.29;100263.72;5053506;28;20505;-75
2023/06/17 06:40:38;;;;;;;7.00;5.67;;;;;;;23.74;49.83;100273.22;5052934;28;20545;-75
2023/06/17 06:43:03;;;;;;;9.97;6.13;;;;;;;23.72;50.00;100270.75;5059546;28;20595;-75
2023/06/17 06:45:29;;;;;;;14.67;6.20;;;;;;;23.71;50.10;100269.09;5072051;28;20174;-75
2023/06/17 06:47:54;;;;;;;8.33;5.83;;;;;;;23.72;49.69;100258.38;5067161;28;20205;-75
2023/06/17 06:50:20;;;;;;;8.60;6.20;;;;;;;23.74;49.63;100261.69;5033611;28;20176;-75
2023/06/17 06:52:45;;;;;;;8.63;6.50;;;;;;;23.75;49.75;100263.31;5050549;28;20179;-75
2023/06/17 06:55:11;;;;;;;8.10;5.77;;;;;;;23.76;49.22;100271.56;5048213;28;20253;-76
2023/06/17 06:57:36;;;;;;;10.00;5.93;;;;;;;23.76;50.33;100264.94;5028715;28;20720;-75
2023/06/17 07:00:07;;;;;;;11.47;6.07;;;;;;;23.76;49.29;100264.94;5047892;28;20688;-75
2023/06/17 07:02:33;;;;;;;8.67;5.50;;;;;;;23.76;49.78;100274.44;5090383;28;20178;-75
2023/06/17 07:04:58;;;;;;;8.93;6.30;;;;;;;23.76;49.38;100265.78;5073028;28;20428;-75
2023/06/17 07:07:24;;;;;;;9.83;5.93;;;;;;;23.75;49.04;100264.16;5053751;28;20182;-75
2023/06/17 07:09:49;;;;;;;9.20;6.50;;;;;;;23.76;49.56;100265.78;5052843;28;20174;-75
2023/06/17 07:12:15;;;;;;;7.90;5.60;;;;;;;23.75;48.77;100269.91;5071724;28;20236;-74
2023/06/17 07:14:40;;;;;;;9.17;6.30;;;;;;;23.75;48.82;100264.16;5039084;28;20235;-74
2023/06/17 07:17:06;;;;;;;8.93;6.10;;;;;;;23.75;49.05;100274.84;5055692;28;20182;-74
2023/06/17 07:19:31;;;;;;;9.07;6.17;;;;;;;23.74;48.52;100261.69;5072201;28;21069;-75
2023/06/17 07:21:56;;;;;;;13.13;6.73;;;;;;;23.73;49.07;100266.59;5055879;28;20222;-75
2023/06/17 07:24:22;;;;;;;12.27;6.67;;;;;;;23.72;48.87;100258.38;5055849;28;20182;-75
2023/06/17 07:26:47;;;;;;;9.23;5.93;;;;;;;23.72;49.38;100258.38;5058047;28;20540;-75
2023/06/17 07:29:13;;;;;;;9.43;5.53;;;;;;;23.72;49.09;100262.09;5039102;28;20541;-75
2023/06/17 07:31:38;;;;;;;9.17;6.80;;;;;;;23.71;49.08;100256.72;5056013;28;20582;-73
2023/06/17 07:34:04;;;;;;;8.70;5.70;;;;;;;23.70;48.98;100261.69;5038122;28;20182;-74
2023/06/17 07:36:29;;;;;;;9.20;5.30;;;;;;;23.70;49.25;100255.94;5076873;28;20546;-75
2023/06/17 07:38:55;;;;;;;8.17;6.07;;;;;;;23.70;49.18;100261.69;5047260;28;20263;-75
2023/06/17 07:41:21;;;;;;;9.90;5.97;;;;;;;23.68;49.53;100258.38;5075315;28;20182;-75
2023/06/17 07:43:46;;;;;;;10.43;6.23;;;;;;;23.70;49.28;100255.94;5061958;28;20256;-75
2023/06/17 07:46:12;;;;;;;7.37;5.80;;;;;;;23.69;49.30;100254.25;5044482;28;20175;-75
2023/06/17 07:48:37;;;;;;;8.67;6.23;;;;;;;23.68;49.64;100252.63;5057917;28;20755;-75
2023/06/17 07:51:03;;;;;;;10.17;6.33;;;;;;;23.69;48.90;100257.16;5074428;28;20178;-75
2023/06/17 07:53:28;;;;;;;8.10;6.50;;;;;;;23.68;48.95;100246.06;5057413;28;20201;-75
2023/06/17 07:55:53;;;;;;;8.67;6.30;;;;;;;23.69;49.08;100247.69;5068834;28;20182;-75
2023/06/17 07:58:19;;;;;;;8.40;6.20;;;;;;;23.68;48.95;100241.09;5056862;28;20206;-75
2023/06/17 08:00:45;;;;;;;8.73;6.40;;;;;;;23.69;49.33;100239.03;5064247;28;20186;-74
2023/06/17 08:03:11;;;;;;;11.87;6.37;;;;;;;23.68;49.03;100251.81;5049928;28;20187;-70
2023/06/17 08:05:36;;;;;;;7.27;5.70;;;;;;;23.69;49.13;100248.50;5062380;28;20799;-69
2023/06/17 08:08:02;;;;;;;11.27;6.00;;;;;;;23.69;49.47;100242.72;5053529;28;20471;-70
2023/06/17 08:10:27;;;;;;;7.03;5.53;;;;;;;23.68;49.30;100241.09;5034294;28;20401;-70
2023/06/17 08:12:53;;;;;;;9.20;6.13;;;;;;;23.67;48.97;100239.47;5075942;28;20229;-70
2023/06/17 08:15:19;;;;;;;8.63;6.23;;;;;;;23.67;49.27;100238.63;5059452;28;20585;-69
2023/06/17 08:17:44;;;;;;;8.47;6.37;;;;;;;23.66;49.22;100237.81;5038231;28;20190;-71
2023/06/17 08:20:10;;;;;;;6.70;5.30;;;;;;;23.65;49.33;100236.19;5068137;28;20448;-70
2023/06/17 08:22:36;;;;;;;6.70;5.73;;;;;;;23.66;49.17;100234.09;5063893;28;20182;-70
2023/06/17 08:25:01;;;;;;;10.70;6.43;;;;;;;23.64;49.15;100230.81;5080756;28;20807;-71
2023/06/17 08:27:27;;;;;;;7.07;5.33;;;;;;;23.65;49.38;100226.69;5056765;28;20170;-69
2023/06/17 08:29:53;;;;;;;8.90;5.70;;;;;;;23.65;49.14;100229.59;5072088;28;20177;-70
2023/06/17 08:32:18;;;;;;;7.93;5.90;;;;;;;23.65;49.05;100223.81;5074947;28;20541;-69
2023/06/17 08:34:44;;;;;;;8.93;6.30;;;;;;;23.65;49.11;100224.66;5054621;28;20668;-70
2023/06/17 08:37:09;;;;;;;7.80;5.83;;;;;;;23.66;49.13;100226.28;5071309;28;20186;-69
2023/06/17 08:39:39;;;;;;;7.70;6.07;;;;;;;23.66;48.89;100217.63;5050878;28;20217;-71
2023/06/17 08:42:06;;;;;;;8.00;6.30;;;;;;;23.67;48.77;100224.22;5066550;28;20178;-70
2023/06/17 08:44:32;;;;;;;10.57;7.00;;;;;;;23.66;48.93;100217.63;5048399;28;20543;-71
2023/06/17 08:46:58;;;;;;;9.47;6.30;;;;;;;23.66;49.23;100214.75;5075331;28;20473;-70
2023/06/17 08:49:23;;;;;;;7.70;5.97;;;;;;;23.67;48.85;100224.22;5075376;28;20427;-70
2023/06/17 08:51:49;;;;;;;7.57;5.93;;;;;;;23.68;48.84;100214.34;5045081;28;20890;-70
2023/06/17 08:54:14;;;;;;;8.80;6.10;;;;;;;23.68;48.84;100217.22;5066375;28;20645;-70
2023/06/17 08:56:40;;;;;;;8.83;6.37;;;;;;;23.68;49.06;100217.22;5066835;28;20178;-70
2023/06/17 08:59:06;;;;;;;8.17;5.97;;;;;;;23.69;48.84;100221.75;5035092;28;20780;-70
2023/06/17 09:01:32;;;;;;;9.03;6.60;;;;;;;23.68;48.93;100214.34;5040530;28;20178;-70
2023/06/17 09:03:58;;;;;;;8.20;6.17;;;;;;;23.68;48.67;100209.38;5075884;28;20182;-71
2023/06/17 09:06:25;;;;;;;8.37;7.03;;;;;;;23.67;48.70;100207.75;5071336;28;20241;-70
2023/06/17 09:08:51;;;;;;;9.10;6.23;;;;;;;23.68;48.58;100209.38;5058891;28;20436;-70
2023/06/17 09:11:17;;;;;;;11.10;7.20;;;;;;;23.71;47.77;100219.25;5081129;28;20430;-69
2023/06/17 09:13:50;;;;;;;10.73;7.40;;;;;;;23.73;47.40;100213.91;5034137;28;20476;-70
2023/06/17 09:16:16;;;;;;;9.80;7.67;;;;;;;23.71;47.59;100210.59;5074031;28;20460;-70
2023/06/17 09:18:41;;;;;;;8.60;6.33;;;;;;;23.72;47.95;100206.47;5068938;28;20922;-70
2023/06/17 09:21:07;;;;;;;10.03;6.37;;;;;;;23.71;47.25;100202.78;5049093;28;20456;-74
2023/06/17 09:23:32;;;;;;;8.60;6.83;;;;;;;23.72;47.62;100201.53;5056961;28;20192;-75
2023/06/17 09:26:04;;;;;;;12.63;6.73;;;;;;;23.73;47.76;100211.03;5057794;28;20191;-69
2023/06/17 09:28:30;;;;;;;11.47;6.80;;;;;;;23.73;47.34;100197.41;5067618;28;20228;-69
2023/06/17 09:30:59;;;;;;;9.40;6.80;;;;;;;23.73;46.94;100203.19;5058709;28;20444;-70
2023/06/17 09:33:25;;;;;;;8.73;6.80;;;;;;;23.73;47.07;100197.41;5069738;28;20432;-70
2023/06/17 09:36:08;;;;;;;8.23;6.57;;;;;;;23.73;47.68;100183.00;5040559;28;20456;-70
2023/06/17 09:38:36;;;;;;;11.27;6.77;;;;;;;23.73;47.58;100187.97;5072845;28;20548;-71
2023/06/17 09:41:02;;;;;;;9.60;7.30;;;;;;;23.73;47.40;100188.78;5052981;28;20442;-70
2023/06/17 09:43:28;;;;;;;10.07;6.70;;;;;;;23.74;48.26;100181.75;5068709;28;20443;-69
2023/06/17 09:45:59;;;;;;;8.47;6.70;;;;;;;23.74;47.64;100186.72;5076043;28;21069;-71
2023/06/17 09:48:30;;;;;;;8.57;6.37;;;;;;;23.75;47.42;100180.53;5053753;28;20285;-72
2023/06/17 09:50:55;;;;;;;10.40;6.53;;;;;;;23.77;47.79;100180.94;5038831;28;20440;-71
2023/06/17 09:53:23;;;;;;;10.10;6.93;;;;;;;23.75;47.53;100186.31;5038309;28;20451;-71
2023/06/17 09:55:55;;;;;;;8.33;6.40;;;;;;;23.75;47.90;100177.66;5051283;28;20269;-71
2023/06/17 09:58:22;;;;;;;12.33;7.63;;;;;;;23.76;48.18;100172.69;5057878;28;21403;-71
2023/06/17 10:00:47;;;;;;;11.10;7.03;;;;;;;23.76;48.23;100167.75;5060209;28;20431;-72
2023/06/17 10:03:13;;;;;;;12.80;7.10;;;;;;;23.82;48.12;100168.13;5060462;28;20447;-74
2023/06/17 10:05:38;;;;;;;12.47;7.03;;;;;;;23.86;48.79;100164.00;5066829;28;20546;-74
2023/06/17 10:08:04;;;;;;;26.30;8.80;;;;;;;24.00;52.15;100160.25;5058417;28;20174;-72
2023/06/17 10:10:30;;;;;;;16.80;8.00;;;;;;;24.16;50.93;100164.25;5038046;28;20286;-71
2023/06/17 10:12:57;;;;;;;13.17;8.60;;;;;;;24.23;51.19;100161.31;5080208;28;20319;-72
2023/06/17 10:15:23;;;;;;;14.87;8.80;;;;;;;24.36;50.19;100156.69;5050099;28;20463;-71
2023/06/17 10:17:50;;;;;;;16.70;9.13;;;;;;;24.43;50.21;100159.50;5036602;28;20519;-71
2023/06/17 10:20:16;;;;;;;17.47;9.47;;;;;;;24.46;50.57;100155.78;5070103;28;20424;-72
2023/06/17 10:22:42;;;;;;;14.97;9.63;;;;;;;24.51;48.77;100151.59;5060742;28;20503;-72
2023/06/17 10:25:10;;;;;;;14.10;9.37;;;;;;;24.58;48.75;100158.16;5066866;28;20185;-72
2023/06/17 10:27:35;;;;;;;17.00;11.23;;;;;;;24.79;56.98;100155.09;5057924;28;20264;-72
2023/06/17 10:30:01;;;;;;;17.00;11.90;;;;;;;24.82;56.84;100159.19;5063907;28;20423;-71
2023/06/17 10:32:26;;;;;;;14.50;10.43;;;;;;;24.60;53.70;100158.59;5061700;28;20595;-71
2023/06/17 10:35:07;;;;;;;12.93;9.20;;;;;;;24.59;50.69;100154.03;5027564;28;20570;-70
2023/06/17 10:37:43;;;;;;;17.63;10.83;;;;;;;24.48;50.71;100152.47;5052066;28;20253;-72
2023/06/17 10:40:22;;;;;;;13.80;9.23;;;;;;;24.49;49.94;100148.34;5038773;28;20467;-72
2023/06/17 10:43:03;;;;;;;15.23;8.77;;;;;;;24.47;48.53;100154.53;5072332;28;21006;-72
2023/06/17 10:45:29;;;;;;;12.90;8.30;;;;;;;24.54;47.48;100145.00;5089393;28;20432;-72
2023/06/17 10:48:17;;;;;;;11.93;9.27;;;;;;;24.45;47.71;100141.75;5089798;28;20919;-72
2023/06/17 10:50:43;;;;;;;17.13;8.60;;;;;;;24.49;46.87;100143.38;5067512;28;20432;-71
2023/06/17 10:53:14;;;;;;;13.00;8.37;;;;;;;24.49;46.64;100152.03;5059051;28;20444;-72
2023/06/17 10:55:40;;;;;;;12.93;8.30;;;;;;;24.48;45.78;100144.63;5068528;28;20431;-70
2023/06/17 10:58:07;;;;;;;12.80;7.93;;;;;;;24.46;44.67;100146.28;5056760;28;20460;-70
2023/06/17 11:00:32;;;;;;;12.53;7.00;;;;;;;24.46;43.85;100143.41;5050830;28;20236;-71
2023/06/17 11:02:58;;;;;;;9.07;6.60;;;;;;;24.43;43.41;100138.50;5051006;28;20427;-70
2023/06/17 11:05:24;;;;;;;19.60;7.93;;;;;;;24.43;43.06;100138.50;5063268;28;20269;-70
2023/06/17 11:07:50;;;;;;;12.40;7.00;;;;;;;24.41;43.72;100136.03;5059599;28;20187;-70
2023/06/17 11:10:16;;;;;;;9.27;7.33;;;;;;;24.43;43.65;100135.63;5057939;28;20182;-71
2023/06/17 11:12:46;;;;;;;8.60;6.30;;;;;;;24.46;42.72;100132.69;5039365;28;20285;-71
2023/06/17 11:15:12;;;;;;;9.70;6.83;;;;;;;24.47;41.50;100145.03;5094740;28;20483;-70
2023/06/17 11:17:37;;;;;;;8.93;6.90;;;;;;;24.50;40.56;100133.47;5055416;28;20444;-71